Harper, Oregon
Current Conditions -  °F | °C
As of 9:53 AM on Thursday 23 Oct 2014 (Local Time) from KONO Reporting Station
Overcast Overcast  
Wind Chill: 55°   Ceiling: 8000
Heat Index: 55°   Visibility: 10mi
Dew Point: 47°   Wind: 13mph
Humidity: 74%   Direction: 150°SSE
Pressure: 30.01"   Gusts: NA
Location:  43.86°N, 117.61°W
Report Text: KONO 231553Z AUTO 15011KT 10SM OVC080 13/08 A3001 RMK AO2 RAB08E17 SLP160 P0000 T01280083
Loading
Personal Weather Stations






























Interactive Weather Map
Tropical Storm Tracking
New forecast layout! Learn more

10-Day Weather Forecast

Advertisements
Track Severe Weather on mobile